sensor_id;sensor_type;location;lat;lon;timestamp;pressure;altitude;pressure_sealevel;temperature;humidity
37972;BME280;23794;48.234;8.344;2023-09-08T00:02:29;94628.06;;;16.36;81.33
37972;BME280;23794;48.234;8.344;2023-09-08T00:04:56;94626.09;;;16.37;81.52
37972;BME280;23794;48.234;8.344;2023-09-08T00:07:23;94629.72;;;16.34;81.50
37972;BME280;23794;48.234;8.344;2023-09-08T00:09:50;94630.63;;;16.27;81.98
37972;BME280;23794;48.234;8.344;2023-09-08T00:12:17;94623.97;;;16.24;82.27
37972;BME280;23794;48.234;8.344;2023-09-08T00:14:44;94631.34;;;16.31;80.77
37972;BME280;23794;48.234;8.344;2023-09-08T00:17:11;94627.88;;;16.27;81.73
37972;BME280;23794;48.234;8.344;2023-09-08T00:19:38;94629.94;;;16.23;82.01
37972;BME280;23794;48.234;8.344;2023-09-08T00:22:05;94622.09;;;16.21;82.75
37972;BME280;23794;48.234;8.344;2023-09-08T00:24:35;94622.84;;;16.22;82.70
37972;BME280;23794;48.234;8.344;2023-09-08T00:27:01;94618.09;;;16.22;82.06
37972;BME280;23794;48.234;8.344;2023-09-08T00:29:28;94609.47;;;16.20;82.21
37972;BME280;23794;48.234;8.344;2023-09-08T00:31:56;94613.81;;;16.21;82.38
37972;BME280;23794;48.234;8.344;2023-09-08T00:34:23;94613.44;;;16.19;82.69
37972;BME280;23794;48.234;8.344;2023-09-08T00:36:49;94618.59;;;16.17;82.27
37972;BME280;23794;48.234;8.344;2023-09-08T00:39:17;94615.41;;;16.19;81.85
37972;BME280;23794;48.234;8.344;2023-09-08T00:41:44;94615.63;;;16.08;82.32
37972;BME280;23794;48.234;8.344;2023-09-08T00:44:11;94614.16;;;16.03;82.86
37972;BME280;23794;48.234;8.344;2023-09-08T00:46:39;94612.63;;;16.02;82.72
37972;BME280;23794;48.234;8.344;2023-09-08T00:49:07;94610.97;;;16.05;82.60
37972;BME280;23794;48.234;8.344;2023-09-08T00:51:36;94607.03;;;16.06;82.69
37972;BME280;23794;48.234;8.344;2023-09-08T00:54:06;94599.22;;;16.01;82.48
37972;BME280;23794;48.234;8.344;2023-09-08T00:56:34;94607.94;;;15.99;82.49
37972;BME280;23794;48.234;8.344;2023-09-08T00:59:01;94602.91;;;15.94;82.70
37972;BME280;23794;48.234;8.344;2023-09-08T01:01:29;94606.94;;;15.89;82.58
37972;BME280;23794;48.234;8.344;2023-09-08T01:03:56;94605.38;;;15.88;82.58
37972;BME280;23794;48.234;8.344;2023-09-08T01:06:24;94609.75;;;15.86;82.75
37972;BME280;23794;48.234;8.344;2023-09-08T01:08:51;94603.53;;;15.82;82.75
37972;BME280;23794;48.234;8.344;2023-09-08T01:11:19;94598.00;;;15.82;83.33
37972;BME280;23794;48.234;8.344;2023-09-08T01:13:47;94600.69;;;15.85;82.55
37972;BME280;23794;48.234;8.344;2023-09-08T01:16:14;94600.34;;;15.83;82.56
37972;BME280;23794;48.234;8.344;2023-09-08T01:18:41;94601.91;;;15.84;82.44
37972;BME280;23794;48.234;8.344;2023-09-08T01:23:56;94603.59;;;15.78;83.53
37972;BME280;23794;48.234;8.344;2023-09-08T01:26:27;94594.25;;;15.72;83.30
37972;BME280;23794;48.234;8.344;2023-09-08T01:28:58;94591.84;;;15.74;82.82
37972;BME280;23794;48.234;8.344;2023-09-08T01:31:26;94590.38;;;15.69;83.45
37972;BME280;23794;48.234;8.344;2023-09-08T01:33:53;94590.72;;;15.71;83.31
37972;BME280;23794;48.234;8.344;2023-09-08T01:36:21;94589.53;;;15.72;83.28
37972;BME280;23794;48.234;8.344;2023-09-08T01:38:48;94589.94;;;15.71;82.88
37972;BME280;23794;48.234;8.344;2023-09-08T01:41:15;94576.19;;;15.67;83.46
37972;BME280;23794;48.234;8.344;2023-09-08T01:43:41;94586.47;;;15.67;83.32
37972;BME280;23794;48.234;8.344;2023-09-08T01:46:08;94586.53;;;15.63;83.51
37972;BME280;23794;48.234;8.344;2023-09-08T01:48:35;94583.28;;;15.68;83.50
37972;BME280;23794;48.234;8.344;2023-09-08T01:51:03;94579.81;;;15.64;83.70
37972;BME280;23794;48.234;8.344;2023-09-08T01:53:29;94580.59;;;15.64;82.63
37972;BME280;23794;48.234;8.344;2023-09-08T01:55:56;94582.72;;;15.57;83.60
37972;BME280;23794;48.234;8.344;2023-09-08T01:58:23;94583.91;;;15.56;83.44
37972;BME280;23794;48.234;8.344;2023-09-08T02:00:50;94583.13;;;15.55;83.47
37972;BME280;23794;48.234;8.344;2023-09-08T02:03:18;94579.97;;;15.57;83.79
37972;BME280;23794;48.234;8.344;2023-09-08T02:05:45;94578.81;;;15.54;83.28
37972;BME280;23794;48.234;8.344;2023-09-08T02:08:12;94576.56;;;15.49;83.63
37972;BME280;23794;48.234;8.344;2023-09-08T02:10:40;94579.66;;;15.51;83.67
37972;BME280;23794;48.234;8.344;2023-09-08T02:13:07;94572.66;;;15.46;84.08
37972;BME280;23794;48.234;8.344;2023-09-08T02:15:37;94580.50;;;15.48;83.50
37972;BME280;23794;48.234;8.344;2023-09-08T02:18:06;94579.75;;;15.47;83.50
37972;BME280;23794;48.234;8.344;2023-09-08T02:20:34;94578.81;;;15.54;83.31
37972;BME280;23794;48.234;8.344;2023-09-08T02:23:05;94582.44;;;15.51;83.61
37972;BME280;23794;48.234;8.344;2023-09-08T02:25:33;94580.94;;;15.46;83.33
37972;BME280;23794;48.234;8.344;2023-09-08T02:28:00;94576.97;;;15.47;83.50
37972;BME280;23794;48.234;8.344;2023-09-08T02:30:28;94583.69;;;15.46;83.56
37972;BME280;23794;48.234;8.344;2023-09-08T02:32:56;94586.16;;;15.41;83.65
37972;BME280;23794;48.234;8.344;2023-09-08T02:35:23;94576.38;;;15.36;84.10
37972;BME280;23794;48.234;8.344;2023-09-08T02:37:53;94585.47;;;15.37;83.99
37972;BME280;23794;48.234;8.344;2023-09-08T02:40:20;94577.56;;;15.39;84.16
37972;BME280;23794;48.234;8.344;2023-09-08T02:42:48;94574.06;;;15.35;83.90
37972;BME280;23794;48.234;8.344;2023-09-08T02:45:15;94578.03;;;15.34;83.94
37972;BME280;23794;48.234;8.344;2023-09-08T02:47:42;94580.00;;;15.33;84.32
37972;BME280;23794;48.234;8.344;2023-09-08T02:50:09;94578.44;;;15.32;84.22
37972;BME280;23794;48.234;8.344;2023-09-08T02:52:36;94577.25;;;15.33;84.10
37972;BME280;23794;48.234;8.344;2023-09-08T02:55:03;94576.88;;;15.31;84.21
37972;BME280;23794;48.234;8.344;2023-09-08T02:57:30;94573.84;;;15.25;84.35
37972;BME280;23794;48.234;8.344;2023-09-08T02:59:57;94568.31;;;15.25;84.38
37972;BME280;23794;48.234;8.344;2023-09-08T03:02:24;94573.84;;;15.25;83.96
37972;BME280;23794;48.234;8.344;2023-09-08T03:04:52;94574.25;;;15.24;84.23
37972;BME280;23794;48.234;8.344;2023-09-08T03:07:20;94573.50;;;15.23;84.60
37972;BME280;23794;48.234;8.344;2023-09-08T03:09:47;94573.13;;;15.21;84.73
37972;BME280;23794;48.234;8.344;2023-09-08T03:12:14;94571.22;;;15.18;84.97
37972;BME280;23794;48.234;8.344;2023-09-08T03:14:41;94580.63;;;15.21;84.94
37972;BME280;23794;48.234;8.344;2023-09-08T03:17:08;94569.56;;;15.21;84.79
37972;BME280;23794;48.234;8.344;2023-09-08T03:19:35;94565.28;;;15.20;84.29
37972;BME280;23794;48.234;8.344;2023-09-08T03:22:03;94561.78;;;15.15;84.19
37972;BME280;23794;48.234;8.344;2023-09-08T03:24:30;94570.13;;;15.12;84.73
37972;BME280;23794;48.234;8.344;2023-09-08T03:26:57;94576.09;;;15.10;85.19
37972;BME280;23794;48.234;8.344;2023-09-08T03:29:24;94575.66;;;15.12;85.35
37972;BME280;23794;48.234;8.344;2023-09-08T03:31:51;94575.59;;;15.15;85.09
37972;BME280;23794;48.234;8.344;2023-09-08T03:34:18;94570.13;;;15.12;85.07
37972;BME280;23794;48.234;8.344;2023-09-08T03:36:49;94572.53;;;15.10;84.95
37972;BME280;23794;48.234;8.344;2023-09-08T03:39:16;94570.56;;;15.10;85.39
37972;BME280;23794;48.234;8.344;2023-09-08T03:41:43;94569.78;;;15.10;85.24
37972;BME280;23794;48.234;8.344;2023-09-08T03:44:10;94574.88;;;15.11;84.91
37972;BME280;23794;48.234;8.344;2023-09-08T03:46:36;94574.88;;;15.11;85.39
37972;BME280;23794;48.234;8.344;2023-09-08T03:49:03;94574.09;;;15.11;85.36
37972;BME280;23794;48.234;8.344;2023-09-08T03:51:30;94570.56;;;15.10;85.00
37972;BME280;23794;48.234;8.344;2023-09-08T03:53:57;94574.16;;;15.07;84.86
37972;BME280;23794;48.234;8.344;2023-09-08T03:56:24;94569.06;;;15.06;85.11
37972;BME280;23794;48.234;8.344;2023-09-08T03:58:51;94573.41;;;15.07;85.20
37972;BME280;23794;48.234;8.344;2023-09-08T04:01:18;94574.22;;;15.04;85.02
37972;BME280;23794;48.234;8.344;2023-09-08T04:03:45;94581.31;;;15.05;85.06
37972;BME280;23794;48.234;8.344;2023-09-08T04:06:12;94577.72;;;15.08;85.33
37972;BME280;23794;48.234;8.344;2023-09-08T04:08:39;94578.19;;;15.03;84.86
37972;BME280;23794;48.234;8.344;2023-09-08T04:11:06;94575.41;;;15.03;84.73
37972;BME280;23794;48.234;8.344;2023-09-08T04:13:33;94580.66;;;14.97;84.79
37972;BME280;23794;48.234;8.344;2023-09-08T04:16:00;94577.53;;;14.95;85.57
37972;BME280;23794;48.234;8.344;2023-09-08T04:18:27;94581.56;;;14.90;85.58
37972;BME280;23794;48.234;8.344;2023-09-08T04:20:54;94579.56;;;14.91;85.56
37972;BME280;23794;48.234;8.344;2023-09-08T04:23:21;94584.69;;;14.92;85.37
37972;BME280;23794;48.234;8.344;2023-09-08T04:25:48;94577.97;;;14.93;85.23
37972;BME280;23794;48.234;8.344;2023-09-08T04:28:15;94585.81;;;14.95;85.30
37972;BME280;23794;48.234;8.344;2023-09-08T04:30:41;94573.28;;;14.90;85.65
37972;BME280;23794;48.234;8.344;2023-09-08T04:33:08;94577.28;;;14.86;85.58
37972;BME280;23794;48.234;8.344;2023-09-08T04:35:36;94578.09;;;14.86;86.36
37972;BME280;23794;48.234;8.344;2023-09-08T04:38:03;94574.91;;;14.88;85.76
37972;BME280;23794;48.234;8.344;2023-09-08T04:40:30;94578.44;;;14.88;85.92
37972;BME280;23794;48.234;8.344;2023-09-08T04:42:57;94587.06;;;14.90;85.82
37972;BME280;23794;48.234;8.344;2023-09-08T04:45:24;94584.78;;;14.85;85.71
37972;BME280;23794;48.234;8.344;2023-09-08T04:47:51;94587.22;;;14.79;85.31
37972;BME280;23794;48.234;8.344;2023-09-08T04:50:19;94591.53;;;14.80;85.29
37972;BME280;23794;48.234;8.344;2023-09-08T04:52:46;94584.44;;;14.83;85.34
37972;BME280;23794;48.234;8.344;2023-09-08T04:55:14;94593.84;;;14.86;86.30
37972;BME280;23794;48.234;8.344;2023-09-08T04:57:41;94583.53;;;14.90;85.46
37972;BME280;23794;48.234;8.344;2023-09-08T05:00:08;94580.34;;;14.91;85.42
37972;BME280;23794;48.234;8.344;2023-09-08T05:02:35;94585.50;;;14.89;85.54
37972;BME280;23794;48.234;8.344;2023-09-08T05:05:04;94584.69;;;14.92;85.44
37972;BME280;23794;48.234;8.344;2023-09-08T05:07:31;94586.69;;;14.88;85.34
37972;BME280;23794;48.234;8.344;2023-09-08T05:09:58;94581.19;;;14.88;85.40
37972;BME280;23794;48.234;8.344;2023-09-08T05:12:28;94585.50;;;14.89;85.77
37972;BME280;23794;48.234;8.344;2023-09-08T05:14:55;94594.16;;;14.91;85.52
37972;BME280;23794;48.234;8.344;2023-09-08T05:17:27;94589.41;;;14.92;85.49
37972;BME280;23794;48.234;8.344;2023-09-08T05:19:55;94588.19;;;14.93;86.02
37972;BME280;23794;48.234;8.344;2023-09-08T05:22:22;94592.47;;;14.97;85.50
37972;BME280;23794;48.234;8.344;2023-09-08T05:24:51;94594.84;;;14.95;85.58
37972;BME280;23794;48.234;8.344;2023-09-08T05:27:19;94600.72;;;14.97;85.42
37972;BME280;23794;48.234;8.344;2023-09-08T05:29:45;94604.63;;;15.00;85.93
37972;BME280;23794;48.234;8.344;2023-09-08T05:32:12;94606.13;;;15.05;86.25
37972;BME280;23794;48.234;8.344;2023-09-08T05:34:39;94603.81;;;15.03;85.53
37972;BME280;23794;48.234;8.344;2023-09-08T05:37:06;94606.06;;;15.08;85.90
37972;BME280;23794;48.234;8.344;2023-09-08T05:39:34;94608.28;;;15.17;85.17
37972;BME280;23794;48.234;8.344;2023-09-08T05:42:00;94614.22;;;15.15;85.14
37972;BME280;23794;48.234;8.344;2023-09-08T05:44:27;94610.25;;;15.16;85.29
37972;BME280;23794;48.234;8.344;2023-09-08T05:46:54;94610.63;;;15.19;85.58
37972;BME280;23794;48.234;8.344;2023-09-08T05:49:22;94613.03;;;15.16;85.46
37972;BME280;23794;48.234;8.344;2023-09-08T05:51:49;94606.19;;;15.25;85.60
37972;BME280;23794;48.234;8.344;2023-09-08T05:54:16;94609.72;;;15.25;84.89
37972;BME280;23794;48.234;8.344;2023-09-08T05:56:43;94607.63;;;15.33;84.97
37972;BME280;23794;48.234;8.344;2023-09-08T05:59:11;94609.94;;;15.35;85.62
37972;BME280;23794;48.234;8.344;2023-09-08T06:01:38;94614.25;;;15.36;86.05
37972;BME280;23794;48.234;8.344;2023-09-08T06:04:09;94612.19;;;15.40;85.54
37972;BME280;23794;48.234;8.344;2023-09-08T06:06:37;94614.13;;;15.43;85.39
37972;BME280;23794;48.234;8.344;2023-09-08T06:09:05;94613.63;;;15.48;85.56
37972;BME280;23794;48.234;8.344;2023-09-08T06:11:33;94622.66;;;15.52;85.50
37972;BME280;23794;48.234;8.344;2023-09-08T06:14:00;94621.72;;;15.59;85.47
37972;BME280;23794;48.234;8.344;2023-09-08T06:16:32;94615.28;;;15.66;85.68
37972;BME280;23794;48.234;8.344;2023-09-08T06:18:59;94615.16;;;15.73;85.31
37972;BME280;23794;48.234;8.344;2023-09-08T06:21:27;94619.09;;;15.72;85.35
37972;BME280;23794;48.234;8.344;2023-09-08T06:23:54;94621.38;;;15.77;85.78
37972;BME280;23794;48.234;8.344;2023-09-08T06:26:22;94616.06;;;15.86;85.75
37972;BME280;23794;48.234;8.344;2023-09-08T06:28:50;94618.34;;;15.91;85.44
37972;BME280;23794;48.234;8.344;2023-09-08T06:31:17;94617.06;;;15.96;85.81
37972;BME280;23794;48.234;8.344;2023-09-08T06:33:44;94619.69;;;16.03;85.75
37972;BME280;23794;48.234;8.344;2023-09-08T06:36:11;94618.25;;;16.15;85.40
37972;BME280;23794;48.234;8.344;2023-09-08T06:38:39;94616.75;;;16.31;85.58
37972;BME280;23794;48.234;8.344;2023-09-08T06:41:10;94621.19;;;16.45;85.57
37972;BME280;23794;48.234;8.344;2023-09-08T06:43:38;94621.66;;;16.60;85.54
37972;BME280;23794;48.234;8.344;2023-09-08T06:46:12;94624.75;;;16.78;84.90
37972;BME280;23794;48.234;8.344;2023-09-08T06:48:39;94618.06;;;16.96;84.35
37972;BME280;23794;48.234;8.344;2023-09-08T06:51:05;94607.06;;;17.09;83.95
37972;BME280;23794;48.234;8.344;2023-09-08T06:53:32;94612.34;;;17.19;83.66
37972;BME280;23794;48.234;8.344;2023-09-08T06:56:00;94611.53;;;17.35;83.46
37972;BME280;23794;48.234;8.344;2023-09-08T06:58:28;94619.34;;;17.53;82.85
37972;BME280;23794;48.234;8.344;2023-09-08T07:00:55;94615.09;;;17.65;82.20
37972;BME280;23794;48.234;8.344;2023-09-08T07:03:23;94611.25;;;17.76;81.99
37972;BME280;23794;48.234;8.344;2023-09-08T07:05:50;94610.44;;;17.92;81.74
37972;BME280;23794;48.234;8.344;2023-09-08T07:08:20;94611.94;;;18.09;81.59
37972;BME280;23794;48.234;8.344;2023-09-08T07:10:52;94610.41;;;18.21;81.45
37972;BME280;23794;48.234;8.344;2023-09-08T07:13:19;94604.97;;;18.30;80.70
37972;BME280;23794;48.234;8.344;2023-09-08T07:15:46;94605.88;;;18.40;80.62
37972;BME280;23794;48.234;8.344;2023-09-08T07:18:13;94607.97;;;18.49;80.42
37972;BME280;23794;48.234;8.344;2023-09-08T07:20:40;94608.88;;;18.59;80.17
37972;BME280;23794;48.234;8.344;2023-09-08T07:23:06;94606.66;;;18.67;80.22
37972;BME280;23794;48.234;8.344;2023-09-08T07:25:33;94607.09;;;18.78;79.76
37972;BME280;23794;48.234;8.344;2023-09-08T07:28:00;94605.66;;;18.86;79.46
37972;BME280;23794;48.234;8.344;2023-09-08T07:30:27;94607.31;;;18.97;79.36
37972;BME280;23794;48.234;8.344;2023-09-08T07:32:55;94604.19;;;19.07;78.98
37972;BME280;23794;48.234;8.344;2023-09-08T07:35:22;94605.06;;;19.17;78.92
37972;BME280;23794;48.234;8.344;2023-09-08T07:37:51;94606.25;;;19.29;78.83
37972;BME280;23794;48.234;8.344;2023-09-08T07:40:18;94600.66;;;19.42;78.79
37972;BME280;23794;48.234;8.344;2023-09-08T07:42:46;94602.16;;;19.56;78.32
37972;BME280;23794;48.234;8.344;2023-09-08T07:45:13;94607.22;;;19.70;78.10
37972;BME280;23794;48.234;8.344;2023-09-08T07:47:40;94599.50;;;19.87;78.19
37972;BME280;23794;48.234;8.344;2023-09-08T07:52:46;94605.88;;;20.19;77.04
37972;BME280;23794;48.234;8.344;2023-09-08T07:55:13;94605.78;;;20.32;77.12
37972;BME280;23794;48.234;8.344;2023-09-08T07:57:41;94609.09;;;20.40;76.85
37972;BME280;23794;48.234;8.344;2023-09-08T08:00:09;94598.53;;;20.57;75.83
37972;BME280;23794;48.234;8.344;2023-09-08T08:02:42;94606.16;;;20.75;75.46
37972;BME280;23794;48.234;8.344;2023-09-08T08:05:10;94603.44;;;20.84;75.23
37972;BME280;23794;48.234;8.344;2023-09-08T08:07:38;94601.63;;;21.00;74.52
37972;BME280;23794;48.234;8.344;2023-09-08T08:10:06;94601.94;;;21.11;74.17
37972;BME280;23794;48.234;8.344;2023-09-08T08:12:33;94604.00;;;21.20;74.11
37972;BME280;23794;48.234;8.344;2023-09-08T08:15:00;94608.78;;;21.29;72.13
37972;BME280;23794;48.234;8.344;2023-09-08T08:17:27;94600.13;;;21.36;72.05
37972;BME280;23794;48.234;8.344;2023-09-08T08:19:57;94599.88;;;21.53;72.40
37972;BME280;23794;48.234;8.344;2023-09-08T08:22:33;94605.75;;;21.73;71.98
37972;BME280;23794;48.234;8.344;2023-09-08T08:25:00;94602.66;;;21.90;71.43
37972;BME280;23794;48.234;8.344;2023-09-08T08:27:27;94596.75;;;22.06;70.86
37972;BME280;23794;48.234;8.344;2023-09-08T08:29:54;94595.94;;;22.15;70.15
37972;BME280;23794;48.234;8.344;2023-09-08T08:32:21;94593.19;;;22.24;69.60
37972;BME280;23794;48.234;8.344;2023-09-08T08:34:48;94599.81;;;22.36;69.86
37972;BME280;23794;48.234;8.344;2023-09-08T08:37:14;94598.97;;;22.54;69.11
37972;BME280;23794;48.234;8.344;2023-09-08T08:39:42;94601.22;;;22.74;66.31
37972;BME280;23794;48.234;8.344;2023-09-08T08:42:10;94593.56;;;22.94;64.42
37972;BME280;23794;48.234;8.344;2023-09-08T08:44:38;94595.00;;;23.13;65.46
37972;BME280;23794;48.234;8.344;2023-09-08T08:47:07;94593.72;;;23.24;65.78
37972;BME280;23794;48.234;8.344;2023-09-08T08:49:35;94589.31;;;23.32;64.01
37972;BME280;23794;48.234;8.344;2023-09-08T08:52:04;94593.41;;;23.46;63.73
37972;BME280;23794;48.234;8.344;2023-09-08T08:54:35;94579.75;;;23.63;63.29
37972;BME280;23794;48.234;8.344;2023-09-08T08:57:04;94584.81;;;23.74;61.73
37972;BME280;23794;48.234;8.344;2023-09-08T08:59:31;94584.75;;;23.83;60.17
37972;BME280;23794;48.234;8.344;2023-09-08T09:01:59;94579.25;;;23.89;61.93
37972;BME280;23794;48.234;8.344;2023-09-08T09:04:26;94578.50;;;24.03;61.68
37972;BME280;23794;48.234;8.344;2023-09-08T09:06:53;94580.53;;;24.18;60.85
37972;BME280;23794;48.234;8.344;2023-09-08T09:09:21;94585.94;;;24.21;59.98
37972;BME280;23794;48.234;8.344;2023-09-08T09:11:49;94576.59;;;24.39;59.06
37972;BME280;23794;48.234;8.344;2023-09-08T09:14:18;94582.09;;;24.49;59.24
37972;BME280;23794;48.234;8.344;2023-09-08T09:16:46;94586.56;;;24.55;58.86
37972;BME280;23794;48.234;8.344;2023-09-08T09:19:22;94583.06;;;24.60;56.83
37972;BME280;23794;48.234;8.344;2023-09-08T09:21:58;94574.16;;;24.62;57.17
37972;BME280;23794;48.234;8.344;2023-09-08T09:27:01;94575.72;;;24.78;56.33
37972;BME280;23794;48.234;8.344;2023-09-08T09:29:32;94582.84;;;24.79;55.29
37972;BME280;23794;48.234;8.344;2023-09-08T09:32:06;94577.97;;;24.94;54.95
37972;BME280;23794;48.234;8.344;2023-09-08T09:34:35;94574.97;;;24.98;55.84
37972;BME280;23794;48.234;8.344;2023-09-08T09:37:04;94565.19;;;25.08;55.08
37972;BME280;23794;48.234;8.344;2023-09-08T09:39:31;94572.06;;;25.07;55.74
37972;BME280;23794;48.234;8.344;2023-09-08T09:41:58;94575.31;;;25.21;55.52
37972;BME280;23794;48.234;8.344;2023-09-08T09:44:26;94572.09;;;25.28;54.18
37972;BME280;23794;48.234;8.344;2023-09-08T09:46:54;94565.22;;;25.50;53.79
37972;BME280;23794;48.234;8.344;2023-09-08T09:49:21;94567.19;;;25.64;53.41
37972;BME280;23794;48.234;8.344;2023-09-08T09:51:49;94566.53;;;25.75;54.23
37972;BME280;23794;48.234;8.344;2023-09-08T09:54:17;94570.34;;;25.93;53.17
37972;BME280;23794;48.234;8.344;2023-09-08T09:56:44;94575.56;;;26.05;53.34
37972;BME280;23794;48.234;8.344;2023-09-08T09:59:13;94559.13;;;26.19;52.34
37972;BME280;23794;48.234;8.344;2023-09-08T10:01:41;94564.22;;;26.20;52.60
37972;BME280;23794;48.234;8.344;2023-09-08T10:04:09;94555.41;;;26.33;52.72
37972;BME280;23794;48.234;8.344;2023-09-08T10:06:39;94550.47;;;26.49;52.47
37972;BME280;23794;48.234;8.344;2023-09-08T10:09:06;94555.25;;;26.75;52.19
37972;BME280;23794;48.234;8.344;2023-09-08T10:11:50;94563.06;;;26.97;51.30
37972;BME280;23794;48.234;8.344;2023-09-08T10:14:18;94557.59;;;27.20;51.53
37972;BME280;23794;48.234;8.344;2023-09-08T10:16:46;94551.56;;;27.44;51.27
37972;BME280;23794;48.234;8.344;2023-09-08T10:19:16;94552.09;;;27.48;50.51
37972;BME280;23794;48.234;8.344;2023-09-08T10:21:47;94550.09;;;27.60;49.75
37972;BME280;23794;48.234;8.344;2023-09-08T10:24:50;94548.09;;;27.66;49.14
37972;BME280;23794;48.234;8.344;2023-09-08T10:27:11;94545.84;;;27.76;48.47
37972;BME280;23794;48.234;8.344;2023-09-08T10:29:39;94548.16;;;27.83;47.15
37972;BME280;23794;48.234;8.344;2023-09-08T10:32:08;94545.22;;;27.55;47.69
37972;BME280;23794;48.234;8.344;2023-09-08T10:34:36;94549.41;;;27.76;49.03
37972;BME280;23794;48.234;8.344;2023-09-08T10:37:18;94547.69;;;27.96;48.69
37972;BME280;23794;48.234;8.344;2023-09-08T10:39:45;94544.88;;;28.07;49.51
37972;BME280;23794;48.234;8.344;2023-09-08T10:47:25;94540.84;;;28.48;47.12
37972;BME280;23794;48.234;8.344;2023-09-08T10:49:52;94538.81;;;28.49;46.17
37972;BME280;23794;48.234;8.344;2023-09-08T10:52:26;94539.06;;;28.68;46.51
37972;BME280;23794;48.234;8.344;2023-09-08T10:54:54;94539.28;;;28.81;46.40
37972;BME280;23794;48.234;8.344;2023-09-08T10:57:24;94531.06;;;28.89;45.67
37972;BME280;23794;48.234;8.344;2023-09-08T10:59:53;94531.88;;;28.61;44.38
37972;BME280;23794;48.234;8.344;2023-09-08T11:02:47;94534.97;;;28.58;44.44
37972;BME280;23794;48.234;8.344;2023-09-08T11:05:16;94531.09;;;28.72;44.08
37972;BME280;23794;48.234;8.344;2023-09-08T11:07:44;94533.16;;;28.71;45.63
37972;BME280;23794;48.234;8.344;2023-09-08T11:10:12;94525.72;;;28.74;45.31
37972;BME280;23794;48.234;8.344;2023-09-08T11:12:39;94525.19;;;28.87;44.23
37972;BME280;23794;48.234;8.344;2023-09-08T11:15:07;94531.78;;;29.18;44.50
37972;BME280;23794;48.234;8.344;2023-09-08T11:17:36;94519.78;;;29.12;43.50
37972;BME280;23794;48.234;8.344;2023-09-08T11:20:06;94525.59;;;29.37;43.79
37972;BME280;23794;48.234;8.344;2023-09-08T11:22:37;94520.69;;;29.54;42.55
37972;BME280;23794;48.234;8.344;2023-09-08T11:25:09;94523.78;;;29.50;43.36
37972;BME280;23794;48.234;8.344;2023-09-08T11:27:40;94522.41;;;29.69;42.85
37972;BME280;23794;48.234;8.344;2023-09-08T11:30:08;94518.69;;;29.91;43.05
37972;BME280;23794;48.234;8.344;2023-09-08T11:32:35;94526.41;;;29.85;41.45
37972;BME280;23794;48.234;8.344;2023-09-08T11:35:07;94524.16;;;29.72;41.41
37972;BME280;23794;48.234;8.344;2023-09-08T11:37:40;94531.91;;;29.65;42.26
37972;BME280;23794;48.234;8.344;2023-09-08T11:40:09;94527.16;;;29.91;43.09
37972;BME280;23794;48.234;8.344;2023-09-08T11:42:43;94520.78;;;29.85;41.87
37972;BME280;23794;48.234;8.344;2023-09-08T11:45:16;94519.78;;;29.76;41.28
37972;BME280;23794;48.234;8.344;2023-09-08T11:47:50;94518.25;;;29.75;41.67
37972;BME280;23794;48.234;8.344;2023-09-08T11:50:20;94520.25;;;29.86;40.24
37972;BME280;23794;48.234;8.344;2023-09-08T11:52:53;94522.84;;;29.84;40.29
37972;BME280;23794;48.234;8.344;2023-09-08T11:55:21;94523.78;;;29.98;40.12
37972;BME280;23794;48.234;8.344;2023-09-08T11:57:52;94527.94;;;29.91;40.00
37972;BME280;23794;48.234;8.344;2023-09-08T12:00:25;94527.41;;;30.35;40.74
37972;BME280;23794;48.234;8.344;2023-09-08T12:02:53;94526.84;;;30.42;39.70
37972;BME280;23794;48.234;8.344;2023-09-08T12:07:55;94521.44;;;30.44;40.34
37972;BME280;23794;48.234;8.344;2023-09-08T12:10:24;94520.88;;;30.51;41.57
37972;BME280;23794;48.234;8.344;2023-09-08T12:12:53;94527.75;;;30.56;40.00
37972;BME280;23794;48.234;8.344;2023-09-08T12:15:39;94519.38;;;30.03;40.23
37972;BME280;23794;48.234;8.344;2023-09-08T12:18:10;94514.09;;;30.29;41.41
37972;BME280;23794;48.234;8.344;2023-09-08T12:20:39;94510.03;;;30.55;40.53
37972;BME280;23794;48.234;8.344;2023-09-08T12:23:16;94508.09;;;30.75;38.25
37972;BME280;23794;48.234;8.344;2023-09-08T12:25:45;94495.44;;;31.06;37.93
37972;BME280;23794;48.234;8.344;2023-09-08T12:28:12;94499.09;;;31.26;37.83
37972;BME280;23794;48.234;8.344;2023-09-08T12:30:39;94488.59;;;31.21;38.22
37972;BME280;23794;48.234;8.344;2023-09-08T12:33:07;94503.50;;;30.97;37.54
37972;BME280;23794;48.234;8.344;2023-09-08T12:35:34;94503.31;;;31.14;38.36
37972;BME280;23794;48.234;8.344;2023-09-08T12:38:03;94496.06;;;30.93;38.71
37972;BME280;23794;48.234;8.344;2023-09-08T12:40:36;94498.97;;;31.13;37.55
37972;BME280;23794;48.234;8.344;2023-09-08T12:43:04;94498.88;;;31.24;39.19
37972;BME280;23794;48.234;8.344;2023-09-08T12:45:52;94499.66;;;31.44;38.98
37972;BME280;23794;48.234;8.344;2023-09-08T12:48:18;94495.25;;;31.23;38.77
37972;BME280;23794;48.234;8.344;2023-09-08T12:50:46;94497.91;;;31.16;38.36
37972;BME280;23794;48.234;8.344;2023-09-08T12:53:15;94495.81;;;31.16;39.68
37972;BME280;23794;48.234;8.344;2023-09-08T12:55:47;94496.91;;;30.88;37.90
37972;BME280;23794;48.234;8.344;2023-09-08T12:58:29;94486.50;;;31.02;38.76
37972;BME280;23794;48.234;8.344;2023-09-08T13:00:56;94484.97;;;31.01;38.42
37972;BME280;23794;48.234;8.344;2023-09-08T13:03:23;94483.06;;;31.10;39.33
37972;BME280;23794;48.234;8.344;2023-09-08T13:05:50;94480.06;;;31.27;38.26
37972;BME280;23794;48.234;8.344;2023-09-08T13:08:17;94482.91;;;31.27;39.07
37972;BME280;23794;48.234;8.344;2023-09-08T13:10:44;94478.88;;;30.91;38.77
37972;BME280;23794;48.234;8.344;2023-09-08T13:13:11;94487.34;;;30.91;39.42
37972;BME280;23794;48.234;8.344;2023-09-08T13:15:38;94482.88;;;30.77;39.16
37972;BME280;23794;48.234;8.344;2023-09-08T13:18:04;94487.09;;;30.65;39.45
37972;BME280;23794;48.234;8.344;2023-09-08T13:20:31;94476.41;;;30.82;40.34
37972;BME280;23794;48.234;8.344;2023-09-08T13:22:58;94482.78;;;30.88;39.00